createdAt,value
2022-08-30T00:01:08.962Z,23.80
2022-08-30T00:03:49.678Z,23.80
2022-08-30T00:06:29.498Z,23.90
2022-08-30T00:09:03.718Z,23.90
2022-08-30T00:11:38.561Z,24.00
2022-08-30T00:14:11.755Z,24.00
2022-08-30T00:16:45.808Z,24.10
2022-08-30T00:19:19.487Z,24.20
2022-08-30T00:21:55.349Z,24.20
2022-08-30T00:24:28.706Z,24.20
2022-08-30T00:27:02.820Z,24.20
2022-08-30T00:29:39.436Z,24.20
2022-08-30T00:32:13.592Z,24.40
2022-08-30T00:34:48.057Z,24.40
2022-08-30T00:37:25.450Z,24.30
2022-08-30T00:39:59.391Z,24.00
2022-08-30T00:42:32.858Z,23.80
2022-08-30T00:45:14.038Z,24.10
2022-08-30T00:47:47.742Z,24.30
2022-08-30T00:50:23.636Z,24.40
2022-08-30T00:53:02.353Z,24.40
2022-08-30T00:55:35.904Z,24.40
2022-08-30T00:58:17.190Z,24.40
2022-08-30T01:00:50.969Z,24.40
2022-08-30T01:03:25.277Z,24.50
2022-08-30T01:06:00.118Z,24.40
2022-08-30T01:08:35.597Z,24.40
2022-08-30T01:11:09.219Z,24.60
2022-08-30T01:13:43.658Z,24.50
2022-08-30T01:16:17.392Z,24.50
2022-08-30T01:18:52.640Z,24.50
2022-08-30T01:21:33.187Z,24.60
2022-08-30T01:24:12.076Z,24.60
2022-08-30T01:26:46.155Z,24.60
2022-08-30T01:29:24.265Z,24.60
2022-08-30T01:31:57.495Z,24.60
2022-08-30T01:34:31.406Z,24.70
2022-08-30T01:37:05.777Z,24.60
2022-08-30T01:39:42.294Z,24.60
2022-08-30T01:42:15.735Z,24.60
2022-08-30T01:44:50.000Z,24.70
2022-08-30T01:47:24.535Z,24.80
2022-08-30T01:49:59.785Z,24.90
2022-08-30T01:52:33.527Z,24.80
2022-08-30T01:55:11.076Z,24.90
2022-08-30T01:57:48.851Z,24.90
2022-08-30T02:00:22.910Z,25.10
2022-08-30T02:02:56.712Z,25.20
2022-08-30T02:05:30.488Z,25.20
2022-08-30T02:08:05.017Z,25.30
2022-08-30T02:10:40.305Z,25.30
2022-08-30T02:13:13.503Z,25.30
2022-08-30T02:15:47.632Z,25.30
2022-08-30T02:18:21.366Z,25.30
2022-08-30T02:20:54.582Z,25.50
2022-08-30T02:23:29.607Z,25.70
2022-08-30T02:26:05.631Z,25.60
2022-08-30T02:28:42.721Z,25.70
2022-08-30T02:31:24.562Z,25.70
2022-08-30T02:33:58.405Z,25.80
2022-08-30T02:36:32.316Z,25.80
2022-08-30T02:39:05.563Z,25.90
2022-08-30T02:41:42.109Z,26.00
2022-08-30T02:44:15.650Z,25.90
2022-08-30T02:46:49.740Z,25.70
2022-08-30T02:49:33.122Z,25.70
2022-08-30T02:52:09.326Z,25.60
2022-08-30T02:54:43.027Z,25.50
2022-08-30T02:57:20.014Z,25.30
2022-08-30T02:59:54.698Z,25.30
2022-08-30T03:02:28.445Z,25.20
2022-08-30T03:05:01.838Z,25.10
2022-08-30T03:07:35.393Z,25.00
2022-08-30T03:10:10.519Z,24.90
2022-08-30T03:12:45.765Z,25.00
2022-08-30T03:15:20.188Z,24.90
2022-08-30T03:17:53.946Z,24.90
2022-08-30T03:20:27.743Z,24.90
2022-08-30T03:23:01.637Z,25.10
2022-08-30T03:25:35.505Z,25.00
2022-08-30T03:28:11.877Z,25.20
2022-08-30T03:30:45.417Z,25.40
2022-08-30T03:33:19.294Z,25.40
2022-08-30T03:36:01.504Z,25.40
2022-08-30T03:38:34.953Z,25.40
2022-08-30T03:41:09.270Z,25.60
2022-08-30T03:43:45.001Z,25.70
2022-08-30T03:46:19.409Z,26.10
2022-08-30T03:48:59.273Z,26.20
2022-08-30T03:51:36.044Z,26.20
2022-08-30T03:54:09.192Z,26.20
2022-08-30T03:56:43.252Z,26.40
2022-08-30T03:59:18.837Z,26.40
2022-08-30T04:01:52.414Z,26.50
2022-08-30T04:04:25.401Z,26.50
2022-08-30T04:07:00.407Z,26.30
2022-08-30T04:09:33.875Z,26.40
2022-08-30T04:12:07.764Z,26.40
2022-08-30T04:14:46.617Z,26.20
2022-08-30T04:17:26.417Z,26.10
2022-08-30T04:20:01.269Z,26.30
2022-08-30T04:22:35.144Z,26.40
2022-08-30T04:25:08.979Z,26.30
2022-08-30T04:27:50.108Z,26.30
2022-08-30T04:30:29.521Z,26.30
2022-08-30T04:33:03.861Z,26.60
2022-08-30T04:35:38.527Z,26.40
2022-08-30T04:38:12.334Z,26.50
2022-08-30T04:40:47.213Z,26.60
2022-08-30T04:43:20.897Z,26.60
2022-08-30T04:45:56.751Z,26.70
2022-08-30T04:48:30.532Z,27.00
2022-08-30T04:51:06.528Z,27.00
2022-08-30T04:53:40.892Z,27.10
2022-08-30T04:56:17.842Z,27.20
2022-08-30T04:58:55.737Z,27.10
2022-08-30T05:01:45.056Z,27.10
2022-08-30T05:04:19.799Z,27.10
2022-08-30T05:06:54.489Z,26.90
2022-08-30T05:09:28.335Z,26.80
2022-08-30T05:12:02.551Z,27.00
2022-08-30T05:14:36.404Z,26.90
2022-08-30T05:17:11.842Z,27.00
2022-08-30T05:19:46.510Z,27.20
2022-08-30T05:22:20.253Z,27.20
2022-08-30T05:24:53.985Z,27.20
2022-08-30T05:27:30.290Z,27.00
2022-08-30T05:30:07.707Z,27.00
2022-08-30T05:32:43.674Z,26.70
2022-08-30T05:35:24.963Z,26.50
2022-08-30T05:37:59.009Z,26.60
2022-08-30T05:40:35.570Z,26.60
2022-08-30T05:43:13.597Z,26.50
2022-08-30T05:45:47.400Z,26.50
2022-08-30T05:48:23.817Z,26.60
2022-08-30T05:51:10.951Z,26.70
2022-08-30T05:53:45.378Z,26.60
2022-08-30T05:56:20.835Z,26.30
2022-08-30T05:58:54.425Z,26.20
2022-08-30T06:01:30.454Z,26.30
2022-08-30T06:04:06.959Z,26.40
2022-08-30T06:06:43.149Z,26.60
2022-08-30T06:09:18.192Z,26.60
2022-08-30T06:11:52.289Z,26.70
2022-08-30T06:14:26.365Z,26.70
2022-08-30T06:17:00.400Z,26.80
2022-08-30T06:19:36.194Z,26.60
2022-08-30T06:22:11.548Z,26.40
2022-08-30T06:25:00.125Z,26.50
2022-08-30T06:27:34.617Z,26.70
2022-08-30T06:30:09.875Z,26.80
2022-08-30T06:35:38.136Z,26.90
2022-08-30T06:38:12.128Z,27.20
2022-08-30T06:40:45.950Z,27.30
2022-08-30T06:43:20.546Z,27.40
2022-08-30T06:45:54.645Z,27.50
2022-08-30T06:48:28.362Z,27.50
2022-08-30T06:51:07.061Z,27.50
2022-08-30T06:53:40.717Z,27.70
2022-08-30T06:56:16.999Z,27.70
2022-08-30T06:58:51.572Z,27.90
2022-08-30T07:01:26.533Z,27.80
2022-08-30T07:04:00.293Z,28.00
2022-08-30T07:06:37.975Z,28.00
2022-08-30T07:09:11.618Z,28.20
2022-08-30T07:11:48.963Z,28.20
2022-08-30T07:14:22.824Z,28.30
2022-08-30T07:16:56.727Z,28.20
2022-08-30T07:19:28.865Z,28.20
2022-08-30T07:22:03.603Z,27.60
2022-08-30T07:24:36.918Z,27.60
2022-08-30T07:27:10.834Z,27.70
2022-08-30T07:29:44.131Z,27.80
2022-08-30T07:32:18.246Z,27.80
2022-08-30T07:34:51.859Z,27.80
2022-08-30T07:37:27.806Z,27.60
2022-08-30T07:40:08.869Z,27.70
2022-08-30T07:42:43.702Z,27.70
2022-08-30T07:45:18.392Z,27.80
2022-08-30T07:47:52.055Z,27.70
2022-08-30T07:50:25.411Z,27.80
2022-08-30T07:53:00.937Z,27.70
2022-08-30T07:55:34.838Z,27.50
2022-08-30T07:58:07.968Z,27.60
2022-08-30T08:00:41.683Z,27.70
2022-08-30T08:03:15.934Z,27.80
2022-08-30T08:05:50.528Z,27.70
2022-08-30T08:08:29.440Z,27.70
2022-08-30T08:11:08.851Z,27.60
2022-08-30T08:13:52.800Z,27.60
2022-08-30T08:16:30.508Z,27.60
2022-08-30T08:19:04.389Z,27.90
2022-08-30T08:21:38.643Z,28.00
2022-08-30T08:24:13.875Z,28.00
2022-08-30T08:26:47.861Z,28.20
2022-08-30T08:29:21.029Z,28.40
2022-08-30T08:31:55.078Z,28.40
2022-08-30T08:34:28.448Z,28.30
2022-08-30T08:37:02.075Z,28.50
2022-08-30T08:39:37.564Z,28.10
2022-08-30T08:42:18.955Z,28.20
2022-08-30T08:49:00.492Z,28.10
2022-08-30T08:51:55.311Z,28.10
2022-08-30T08:54:36.377Z,28.20
2022-08-30T08:57:15.990Z,28.30
2022-08-30T08:59:50.078Z,27.90
2022-08-30T09:02:28.986Z,27.80
2022-08-30T09:05:07.201Z,27.70
2022-08-30T09:07:44.754Z,27.60
2022-08-30T09:10:40.462Z,27.30
2022-08-30T09:13:18.961Z,27.30
2022-08-30T09:15:55.171Z,27.40
2022-08-30T09:18:51.262Z,27.50
2022-08-30T09:21:31.348Z,27.50
2022-08-30T09:24:10.190Z,27.60
2022-08-30T09:26:45.315Z,27.60
2022-08-30T09:29:25.134Z,27.60
2022-08-30T09:32:16.161Z,27.60
2022-08-30T09:34:52.521Z,27.50
2022-08-30T09:37:37.533Z,27.40
2022-08-30T09:40:21.067Z,27.40
2022-08-30T09:43:11.841Z,27.30
2022-08-30T09:45:49.619Z,27.50
2022-08-30T09:48:35.238Z,27.40
2022-08-30T09:51:31.633Z,27.20
2022-08-30T09:54:18.611Z,27.10
2022-08-30T09:57:02.504Z,27.10
2022-08-30T09:59:47.333Z,27.10
2022-08-30T10:02:52.131Z,27.00
2022-08-30T10:05:34.428Z,26.90
2022-08-30T10:08:17.248Z,26.90
2022-08-30T10:11:03.273Z,26.70
2022-08-30T10:13:58.257Z,26.70
2022-08-30T10:16:45.468Z,26.60
2022-08-30T10:19:40.395Z,26.60
2022-08-30T10:22:18.105Z,26.50
2022-08-30T10:24:55.705Z,26.50
2022-08-30T10:27:34.650Z,26.40
2022-08-30T10:30:12.102Z,26.40
2022-08-30T10:32:52.381Z,26.30
2022-08-30T10:35:34.076Z,26.30
2022-08-30T10:38:19.318Z,26.30
2022-08-30T10:41:16.566Z,26.30
2022-08-30T10:43:57.824Z,26.30
2022-08-30T10:46:37.519Z,26.20
2022-08-30T10:49:16.349Z,26.10
2022-08-30T10:52:02.241Z,26.10
2022-08-30T10:54:41.060Z,26.20
2022-08-30T10:57:14.688Z,26.10
2022-08-30T10:59:52.397Z,26.10
2022-08-30T11:02:43.287Z,26.00
2022-08-30T11:05:42.620Z,26.00
2022-08-30T11:08:28.849Z,25.80
2022-08-30T11:11:13.432Z,25.40
2022-08-30T11:13:49.342Z,25.20
2022-08-30T11:16:23.159Z,25.10
2022-08-30T11:18:59.553Z,24.90
2022-08-30T11:21:39.057Z,24.80
2022-08-30T11:24:16.662Z,24.60
2022-08-30T11:27:05.582Z,24.60
2022-08-30T11:29:42.117Z,24.60
2022-08-30T11:32:28.063Z,24.40
2022-08-30T11:35:04.820Z,24.30
2022-08-30T11:37:45.092Z,24.30
2022-08-30T11:40:51.915Z,24.30
2022-08-30T11:43:58.873Z,24.30
2022-08-30T11:46:45.521Z,24.00
2022-08-30T11:49:50.978Z,23.70
2022-08-30T11:52:38.542Z,23.60
2022-08-30T11:55:55.798Z,23.50
2022-08-30T11:58:51.055Z,23.40
2022-08-30T12:01:50.826Z,23.40
2022-08-30T12:04:40.741Z,23.30
2022-08-30T12:07:35.949Z,23.40
2022-08-30T12:10:25.096Z,23.50
2022-08-30T12:12:59.663Z,23.60
2022-08-30T12:16:01.043Z,23.50
2022-08-30T12:18:44.645Z,23.50
2022-08-30T12:21:43.907Z,23.60
2022-08-30T12:24:25.552Z,23.60
2022-08-30T12:27:00.915Z,23.50
2022-08-30T12:29:35.301Z,23.50
2022-08-30T12:32:20.682Z,23.60
2022-08-30T12:35:01.126Z,23.70
2022-08-30T12:37:38.177Z,23.70
2022-08-30T12:40:19.657Z,23.70
2022-08-30T12:42:57.016Z,23.80
2022-08-30T12:45:33.039Z,23.80
2022-08-30T12:48:09.593Z,23.80
2022-08-30T12:50:52.973Z,23.70
2022-08-30T12:53:32.703Z,23.60
2022-08-30T12:56:08.782Z,23.60
2022-08-30T12:58:48.570Z,23.60
2022-08-30T13:01:32.149Z,23.50
2022-08-30T13:04:27.137Z,23.50
2022-08-30T13:07:04.282Z,23.50
2022-08-30T13:09:39.978Z,23.50
2022-08-30T13:12:15.335Z,23.40
2022-08-30T13:14:52.435Z,23.40
2022-08-30T13:17:28.525Z,23.50
2022-08-30T13:20:06.325Z,23.50
2022-08-30T13:22:43.766Z,23.20
2022-08-30T13:25:20.170Z,23.40
2022-08-30T13:27:59.935Z,23.30
2022-08-30T13:30:33.470Z,23.50
2022-08-30T13:33:07.015Z,23.40
2022-08-30T13:35:50.519Z,23.40
2022-08-30T13:38:26.128Z,23.40
2022-08-30T13:40:59.757Z,23.20
2022-08-30T13:44:09.253Z,23.20
2022-08-30T13:46:28.005Z,23.40
2022-08-30T13:52:26.836Z,23.40
2022-08-30T13:55:03.957Z,23.40
2022-08-30T13:57:55.436Z,23.40
2022-08-30T14:00:36.183Z,23.30
2022-08-30T14:03:12.342Z,23.40
2022-08-30T14:05:50.142Z,23.40
2022-08-30T14:08:46.277Z,23.50
2022-08-30T14:11:26.438Z,23.50
2022-08-30T14:14:25.158Z,23.50
2022-08-30T14:16:55.067Z,23.50
2022-08-30T14:19:28.771Z,23.50
2022-08-30T14:22:02.809Z,23.50
2022-08-30T14:24:36.869Z,23.60
2022-08-30T14:27:12.932Z,23.60
2022-08-30T14:29:50.802Z,23.60
2022-08-30T14:32:24.665Z,23.50
2022-08-30T14:34:58.304Z,23.60
2022-08-30T14:37:33.618Z,23.50
2022-08-30T14:40:08.607Z,23.60
2022-08-30T14:42:44.488Z,23.70
2022-08-30T14:45:19.497Z,23.70
2022-08-30T14:47:54.459Z,23.70
2022-08-30T14:50:28.228Z,23.70
2022-08-30T14:53:02.273Z,23.70
2022-08-30T14:55:38.426Z,23.80
2022-08-30T14:58:22.827Z,23.80
2022-08-30T15:00:56.316Z,23.80
2022-08-30T15:03:32.095Z,23.90
2022-08-30T15:06:05.564Z,23.80
2022-08-30T15:08:39.989Z,23.80
2022-08-30T15:11:15.855Z,23.80
2022-08-30T15:13:53.008Z,23.80
2022-08-30T15:16:30.805Z,23.80
2022-08-30T15:19:08.621Z,23.90
2022-08-30T15:22:05.860Z,23.80
2022-08-30T15:24:50.947Z,23.80
2022-08-30T15:27:25.735Z,23.80
2022-08-30T15:30:04.916Z,23.80
2022-08-30T15:32:40.232Z,23.80
2022-08-30T15:35:14.127Z,23.80
2022-08-30T15:37:47.490Z,23.90
2022-08-30T15:40:22.503Z,23.90
2022-08-30T15:42:56.616Z,23.90
2022-08-30T15:45:32.922Z,23.90
2022-08-30T15:48:06.926Z,23.90
2022-08-30T15:50:41.674Z,23.90
2022-08-30T15:53:17.386Z,23.90
2022-08-30T15:55:51.748Z,23.90
2022-08-30T15:58:25.854Z,24.00
2022-08-30T16:01:02.232Z,24.00
2022-08-30T16:03:38.085Z,23.90
2022-08-30T16:06:16.935Z,23.90
2022-08-30T16:08:51.656Z,23.90
2022-08-30T16:11:26.320Z,23.90
2022-08-30T16:14:02.351Z,23.90
2022-08-30T16:16:41.105Z,24.00
2022-08-30T16:19:17.295Z,24.00
2022-08-30T16:21:51.949Z,23.90
2022-08-30T16:24:27.530Z,23.90
2022-08-30T16:27:01.569Z,23.80
2022-08-30T16:29:35.532Z,23.70
2022-08-30T16:32:11.181Z,23.70
2022-08-30T16:34:45.624Z,23.70
2022-08-30T16:37:19.262Z,23.80
2022-08-30T16:39:55.708Z,23.80
2022-08-30T16:42:30.570Z,23.80
2022-08-30T16:45:10.481Z,23.70
2022-08-30T16:47:46.557Z,23.80
2022-08-30T16:50:26.102Z,23.80
2022-08-30T16:53:02.081Z,23.70
2022-08-30T16:55:37.421Z,23.70
2022-08-30T16:58:18.273Z,23.70
2022-08-30T17:00:53.985Z,23.80
2022-08-30T17:03:29.272Z,23.80
2022-08-30T17:06:04.606Z,23.70
2022-08-30T17:08:38.680Z,23.80
2022-08-30T17:11:15.229Z,23.80
2022-08-30T17:13:51.172Z,23.80
2022-08-30T17:16:28.057Z,23.70
2022-08-30T17:19:05.822Z,23.80
2022-08-30T17:21:39.398Z,23.70
2022-08-30T17:24:13.047Z,23.70
2022-08-30T17:26:46.806Z,23.80
2022-08-30T17:29:20.332Z,23.80
2022-08-30T17:31:56.010Z,23.90
2022-08-30T17:34:33.290Z,23.90
2022-08-30T17:37:07.263Z,24.00
2022-08-30T17:39:41.472Z,24.00
2022-08-30T17:42:15.272Z,24.00
2022-08-30T17:44:48.899Z,23.90
2022-08-30T17:47:22.754Z,23.90
2022-08-30T17:50:03.124Z,23.90
2022-08-30T17:52:39.952Z,23.90
2022-08-30T17:55:14.418Z,24.00
2022-08-30T17:57:48.126Z,24.00
2022-08-30T18:00:25.224Z,23.90
2022-08-30T18:02:59.250Z,23.80
2022-08-30T18:05:34.780Z,23.80
2022-08-30T18:08:12.261Z,23.80
2022-08-30T18:10:46.021Z,23.70
2022-08-30T18:13:19.106Z,23.70
2022-08-30T18:15:53.935Z,23.70
2022-08-30T18:18:29.608Z,23.70
2022-08-30T18:21:05.150Z,23.70
2022-08-30T18:23:38.306Z,23.70
2022-08-30T18:26:12.293Z,23.70
2022-08-30T18:28:46.694Z,23.60
2022-08-30T18:31:20.961Z,23.60
2022-08-30T18:33:54.961Z,23.60
2022-08-30T18:36:30.301Z,23.60
2022-08-30T18:39:05.370Z,23.70
2022-08-30T18:41:43.005Z,23.70
2022-08-30T18:47:12.078Z,23.70
2022-08-30T18:49:45.379Z,23.80
2022-08-30T18:52:20.770Z,23.70
2022-08-30T18:54:54.264Z,23.70
2022-08-30T18:57:31.939Z,23.60
2022-08-30T19:00:06.897Z,23.50
2022-08-30T19:02:40.158Z,23.50
2022-08-30T19:05:19.720Z,23.40
2022-08-30T19:07:56.816Z,23.40
2022-08-30T19:10:32.895Z,23.40
2022-08-30T19:13:07.205Z,23.30
2022-08-30T19:15:41.741Z,23.30
2022-08-30T19:18:17.190Z,23.30
2022-08-30T19:20:52.165Z,23.20
2022-08-30T19:23:34.080Z,23.20
2022-08-30T19:26:08.733Z,23.10
2022-08-30T19:28:44.989Z,23.10
2022-08-30T19:31:19.565Z,23.00
2022-08-30T19:33:53.137Z,23.00
2022-08-30T19:36:29.937Z,23.00
2022-08-30T19:39:04.621Z,22.90
2022-08-30T19:41:38.062Z,22.90
2022-08-30T19:44:11.811Z,22.90
2022-08-30T19:46:45.011Z,22.80
2022-08-30T19:49:19.061Z,22.80
2022-08-30T19:52:04.993Z,22.90
2022-08-30T19:54:41.258Z,22.90
2022-08-30T19:57:15.049Z,22.90
2022-08-30T19:59:49.455Z,22.80
2022-08-30T20:02:23.130Z,22.90
2022-08-30T20:05:01.096Z,22.90
2022-08-30T20:07:38.063Z,22.90
2022-08-30T20:10:16.803Z,22.90
2022-08-30T20:12:52.636Z,23.00
2022-08-30T20:15:27.770Z,22.90
2022-08-30T20:18:06.411Z,22.90
2022-08-30T20:20:49.717Z,23.00
2022-08-30T20:23:28.432Z,23.00
2022-08-30T20:24:29.321Z,23.70
2022-08-30T20:26:06.913Z,22.90
2022-08-30T20:28:41.028Z,23.00
2022-08-30T20:31:16.116Z,23.00
2022-08-30T20:33:50.300Z,22.90
2022-08-30T20:36:24.319Z,23.00
2022-08-30T20:38:57.842Z,23.00
2022-08-30T20:41:33.757Z,23.00
2022-08-30T20:44:07.330Z,22.90
2022-08-30T20:46:48.268Z,22.90
2022-08-30T20:49:23.158Z,22.90
2022-08-30T20:51:56.402Z,22.90
2022-08-30T20:54:30.794Z,22.90
2022-08-30T20:57:07.700Z,23.00
2022-08-30T20:59:41.724Z,22.90
2022-08-30T21:02:16.467Z,22.90
2022-08-30T21:04:50.505Z,22.90
2022-08-30T21:07:26.727Z,22.80
2022-08-30T21:10:00.198Z,22.90
2022-08-30T21:12:37.294Z,22.90
2022-08-30T21:15:33.967Z,22.90
2022-08-30T21:18:06.104Z,22.80
2022-08-30T21:20:40.235Z,22.80
2022-08-30T21:23:26.606Z,22.80
2022-08-30T21:26:00.616Z,22.70
2022-08-30T21:28:35.400Z,22.80
2022-08-30T21:31:12.102Z,22.70
2022-08-30T21:33:46.435Z,22.70
2022-08-30T21:36:36.646Z,22.70
2022-08-30T21:39:11.149Z,22.70
2022-08-30T21:41:44.564Z,22.70
2022-08-30T21:44:24.896Z,22.60
2022-08-30T21:46:59.889Z,22.60
2022-08-30T21:49:33.461Z,22.60
2022-08-30T21:52:06.936Z,22.60
2022-08-30T21:54:40.668Z,22.60
2022-08-30T21:57:14.754Z,22.70
2022-08-30T21:59:52.612Z,22.80
2022-08-30T22:02:26.393Z,22.70
2022-08-30T22:05:00.276Z,22.70
2022-08-30T22:07:33.805Z,22.80
2022-08-30T22:10:06.913Z,22.70
2022-08-30T22:12:41.489Z,22.70
2022-08-30T22:15:17.224Z,22.60
2022-08-30T22:17:50.896Z,22.50
2022-08-30T22:20:24.632Z,22.40
2022-08-30T22:23:01.061Z,22.40
2022-08-30T22:25:34.415Z,22.50
2022-08-30T22:28:07.565Z,22.60
2022-08-30T22:30:43.187Z,22.60
2022-08-30T22:33:17.160Z,22.50
2022-08-30T22:35:50.284Z,22.60
2022-08-30T22:38:23.934Z,22.60
2022-08-30T22:40:58.146Z,22.60
2022-08-30T22:43:31.591Z,22.50
2022-08-30T22:46:10.845Z,22.50
2022-08-30T22:48:46.621Z,22.50
2022-08-30T22:51:22.411Z,22.60
2022-08-30T22:53:55.690Z,22.70
2022-08-30T22:56:31.101Z,22.60
2022-08-30T22:59:04.531Z,22.60
2022-08-30T23:01:42.070Z,22.60
2022-08-30T23:04:16.339Z,22.60
2022-08-30T23:06:50.262Z,22.60
2022-08-30T23:09:24.039Z,22.70
2022-08-30T23:11:57.768Z,22.70
2022-08-30T23:14:31.041Z,22.70
2022-08-30T23:17:06.591Z,22.60
2022-08-30T23:19:40.170Z,22.70
2022-08-30T23:22:14.743Z,22.70
2022-08-30T23:25:04.034Z,22.70
2022-08-30T23:28:02.294Z,22.70
2022-08-30T23:30:52.281Z,22.60
2022-08-30T23:33:43.937Z,22.60
2022-08-30T23:36:35.706Z,22.60
2022-08-30T23:39:25.363Z,22.50
2022-08-30T23:55:04.581Z,22.70
